Time;durP1;ratioP1;P1;durP2;ratioP2;P2;SDS_P1;SDS_P2;PMS_P1;PMS_P2;Temp;Humidity;BMP_temperature;BMP_pressure;BME280_temperature;BME280_humidity;BME280_pressure;Samples;Min_cycle;Max_cycle;Signal;HPM_P1;HPM_P2
2022/07/27 00:00:01;;;;;;;;;;;;;;;16.56;57.04;100237.13;5041237;28;1121;-59
2022/07/27 00:02:37;;;;;;;;;;;;;;;16.53;56.72;100232.22;5037190;28;1014;-58
2022/07/27 00:05:02;;;;;;;;;;;;;;;16.55;56.67;100235.50;5038435;28;1898;-59
2022/07/27 00:07:28;;;;;;;;;;;;;;;16.49;56.81;100240.19;5034963;28;990;-59
2022/07/27 00:09:53;;;;;;;;;;;;;;;16.43;56.79;100231.19;5034988;28;1044;-60
2022/07/27 00:12:19;;;;;;;;;;;;;;;16.50;56.59;100236.34;5041304;28;986;-59
2022/07/27 00:14:44;;;;;;;;;;;;;;;16.42;56.71;100236.97;5034764;28;1025;-59
2022/07/27 00:17:10;;;;;;;;;;;;;;;16.44;56.84;100243.00;5039751;28;1052;-59
2022/07/27 00:19:35;;;;;;;;;;;;;;;16.17;56.77;100196.81;5035001;28;1065;-59
2022/07/27 00:22:01;;;;;;;;;;;;;;;16.40;56.66;100233.69;5041336;28;959;-58
2022/07/27 00:24:26;;;;;;;;;;;;;;;16.37;56.57;100235.09;5046169;28;1977;-59
2022/07/27 00:26:52;;;;;;;;;;;;;;;16.38;56.54;100239.47;5039477;28;962;-59
2022/07/27 00:29:17;;;;;;;;;;;;;;;16.40;56.77;100233.69;5043441;28;1144;-59
2022/07/27 00:31:43;;;;;;;;;;;;;;;16.38;56.68;100239.47;5038296;28;950;-59
2022/07/27 00:34:08;;;;;;;;;;;;;;;16.30;56.68;100237.34;5042102;28;1076;-58
2022/07/27 00:36:34;;;;;;;;;;;;;;;16.31;56.71;100236.22;5037992;28;1069;-59
2022/07/27 00:38:59;;;;;;;;;;;;;;;16.31;56.75;100233.47;5039683;28;1026;-60
2022/07/27 00:41:25;;;;;;;;;;;;;;;17.58;57.43;100224.34;5039022;28;978;-59
2022/07/27 00:43:53;;;;;;;;;;;;;;;17.06;58.31;100223.28;5038511;28;963;-59
2022/07/27 00:46:19;;;;;;;;;;;;;;;16.83;58.06;100220.19;5041825;28;1905;-59
2022/07/27 00:48:44;;;;;;;;;;;;;;;16.76;57.59;100227.94;5039137;28;954;-58
2022/07/27 00:51:10;;;;;;;;;;;;;;;16.69;57.42;100222.78;5045627;28;1045;-59
2022/07/27 00:53:35;;;;;;;;;;;;;;;16.64;57.34;100222.81;5044191;28;1231;-58
2022/07/27 00:56:01;;;;;;;;;;;;;;;16.59;57.07;100220.94;5024464;28;1153;-58
2022/07/27 00:58:26;;;;;;;;;;;;;;;16.54;57.08;100220.16;5043602;28;903;-59
2022/07/27 01:00:52;;;;;;;;;;;;;;;16.50;56.80;100222.63;5022239;28;1034;-59
2022/07/27 01:03:17;;;;;;;;;;;;;;;16.49;56.70;100221.00;5041404;28;1140;-59
2022/07/27 01:05:42;;;;;;;;;;;;;;;16.42;56.89;100212.28;5038262;28;1897;-58
2022/07/27 01:08:10;;;;;;;;;;;;;;;16.41;56.41;100219.69;5037794;28;1178;-58
2022/07/27 01:10:36;;;;;;;;;;;;;;;16.40;56.46;100223.53;5026742;28;844;-59
2022/07/27 01:13:02;;;;;;;;;;;;;;;16.40;56.36;100223.53;5037884;28;1041;-58
2022/07/27 01:15:27;;;;;;;;;;;;;;;16.71;57.33;100217.00;5047542;28;958;-58
2022/07/27 01:17:53;;;;;;;;;;;;;;;17.28;57.63;100220.03;5024690;28;986;-59
2022/07/27 01:20:18;;;;;;;;;;;;;;;16.87;58.07;100214.91;5037344;28;1256;-59
2022/07/27 01:22:43;;;;;;;;;;;;;;;16.73;57.81;100215.59;5036712;28;899;-59
2022/07/27 01:25:10;;;;;;;;;;;;;;;16.68;57.37;100212.88;5043201;28;1978;-59
2022/07/27 01:27:35;;;;;;;;;;;;;;;16.65;57.20;100209.88;5024864;28;1387;-58
2022/07/27 01:30:01;;;;;;;;;;;;;;;16.57;57.08;100211.34;5041403;28;994;-58
2022/07/27 01:32:26;;;;;;;;;;;;;;;16.53;56.81;100210.28;5043062;28;1037;-58
2022/07/27 01:34:52;;;;;;;;;;;;;;;16.51;56.67;100217.97;5041183;28;1069;-59
2022/07/27 01:37:17;;;;;;;;;;;;;;;16.49;56.83;100214.69;5037062;28;1165;-58
2022/07/27 01:39:43;;;;;;;;;;;;;;;16.47;56.76;100211.44;5040165;28;1069;-59
2022/07/27 01:42:08;;;;;;;;;;;;;;;16.42;56.62;100210.38;5037996;28;982;-58
2022/07/27 01:44:34;;;;;;;;;;;;;;;16.36;56.60;100206.00;5036827;28;1905;-58
2022/07/27 01:46:59;;;;;;;;;;;;;;;16.42;56.59;100215.84;5043094;28;851;-57
2022/07/27 01:49:24;;;;;;;;;;;;;;;16.39;56.52;100199.13;5040521;28;1453;-57
2022/07/27 01:51:50;;;;;;;;;;;;;;;16.39;56.27;100208.16;5041612;28;1057;-57
2022/07/27 01:54:16;;;;;;;;;;;;;;;16.40;56.51;100198.03;5041130;28;1220;-58
2022/07/27 01:56:42;;;;;;;;;;;;;;;16.32;56.65;100202.19;5036199;28;1002;-58
2022/07/27 01:59:07;;;;;;;;;;;;;;;16.32;56.96;100196.69;5036609;28;970;-57
2022/07/27 02:01:33;;;;;;;;;;;;;;;17.42;57.30;100195.41;5040729;28;1160;-57
2022/07/27 02:03:58;;;;;;;;;;;;;;;16.90;57.89;100195.13;5038284;28;978;-58
2022/07/27 02:06:24;;;;;;;;;;;;;;;16.73;57.65;100190.06;5037296;28;1910;-58
2022/07/27 02:08:49;;;;;;;;;;;;;;;16.57;57.74;100189.38;5036683;28;1014;-57
2022/07/27 02:13:59;;;;;;;;;;;;;;;16.52;57.20;100189.41;5041219;28;931;-57
2022/07/27 02:16:24;;;;;;;;;;;;;;;16.46;57.00;100185.09;5041508;28;1057;-58
2022/07/27 02:18:49;;;;;;;;;;;;;;;16.47;56.79;100189.47;5043758;28;974;-58
2022/07/27 02:21:15;;;;;;;;;;;;;;;16.42;56.60;100193.91;5041851;28;982;-57
2022/07/27 02:23:43;;;;;;;;;;;;;;;16.42;56.56;100193.06;5041590;28;914;-58
2022/07/27 02:26:08;;;;;;;;;;;;;;;16.38;56.56;100194.75;5045462;28;1906;-58
2022/07/27 02:28:34;;;;;;;;;;;;;;;16.34;56.56;100191.75;5040249;28;982;-57
2022/07/27 02:30:59;;;;;;;;;;;;;;;16.34;56.35;100191.75;5042833;28;1144;-58
2022/07/27 02:33:25;;;;;;;;;;;;;;;16.34;56.35;100186.28;5036019;28;860;-58
2022/07/27 02:35:50;;;;;;;;;;;;;;;16.41;56.99;100186.75;5038489;28;1124;-58
2022/07/27 02:38:16;;;;;;;;;;;;;;;17.63;57.36;100193.22;5036301;28;1053;-57
2022/07/27 02:40:41;;;;;;;;;;;;;;;17.02;58.06;100194.75;5031068;28;1097;-57
2022/07/27 02:43:07;;;;;;;;;;;;;;;16.79;57.79;100196.31;5035798;28;1018;-57
2022/07/27 02:45:32;;;;;;;;;;;;;;;16.68;57.71;100196.41;5041726;28;1913;-58
2022/07/27 02:47:57;;;;;;;;;;;;;;;16.61;57.23;100204.16;5038456;28;1047;-63
2022/07/27 02:50:23;;;;;;;;;;;;;;;16.62;56.94;100203.06;5035668;28;1025;-64
2022/07/27 02:52:48;;;;;;;;;;;;;;;16.52;56.80;100197.66;5036575;28;1145;-64
2022/07/27 02:55:14;;;;;;;;;;;;;;;16.50;56.71;100208.09;5035992;28;1041;-61
2022/07/27 02:57:39;;;;;;;;;;;;;;;16.46;56.43;100212.53;5034276;28;1171;-63
2022/07/27 03:00:11;;;;;;;;;;;;;;;16.39;56.51;100208.16;5040457;28;861;-62
2022/07/27 03:02:37;;;;;;;;;;;;;;;16.38;56.67;100202.97;5042487;28;974;-62
2022/07/27 03:05:03;;;;;;;;;;;;;;;16.34;56.43;100210.97;5041681;28;1906;-66
2022/07/27 03:07:29;;;;;;;;;;;;;;;16.38;56.32;100205.72;5040458;28;997;-63
2022/07/27 03:09:54;;;;;;;;;;;;;;;16.46;56.85;100210.59;5040865;28;1465;-62
2022/07/27 03:12:19;;;;;;;;;;;;;;;17.56;57.54;100201.81;5037095;28;851;-62
2022/07/27 03:14:45;;;;;;;;;;;;;;;16.98;58.01;100210.97;5039004;28;1993;-64
2022/07/27 03:17:11;;;;;;;;;;;;;;;16.82;58.05;100206.75;5036878;28;1045;-61
2022/07/27 03:19:36;;;;;;;;;;;;;;;16.68;57.47;100203.84;5035101;28;1148;-61
2022/07/27 03:22:02;;;;;;;;;;;;;;;16.67;57.48;100205.75;5034463;28;1251;-62
2022/07/27 03:24:27;;;;;;;;;;;;;;;16.60;57.25;100203.34;5034938;28;1905;-62
2022/07/27 03:26:52;;;;;;;;;;;;;;;16.60;57.09;100197.03;5037469;28;1136;-62
2022/07/27 03:29:18;;;;;;;;;;;;;;;16.56;56.97;100201.47;5037954;28;1120;-61
2022/07/27 03:31:44;;;;;;;;;;;;;;;16.50;56.73;100199.88;5035358;28;1175;-62
2022/07/27 03:34:09;;;;;;;;;;;;;;;16.45;56.85;100203.47;5034360;28;1041;-61
2022/07/27 03:36:35;;;;;;;;;;;;;;;16.43;56.74;100203.75;5034589;28;1478;-62
2022/07/27 03:39:00;;;;;;;;;;;;;;;16.43;56.58;100201.00;5035626;28;1129;-61
2022/07/27 03:41:26;;;;;;;;;;;;;;;16.43;56.55;100195.50;5038804;28;1120;-62
2022/07/27 03:43:51;;;;;;;;;;;;;;;16.37;56.58;100193.94;5035942;28;1022;-62
2022/07/27 03:46:17;;;;;;;;;;;;;;;16.32;56.88;100184.91;5035183;28;2062;-63
2022/07/27 03:48:42;;;;;;;;;;;;;;;16.33;56.65;100189.31;5041070;28;1215;-62
2022/07/27 03:51:08;;;;;;;;;;;;;;;16.32;56.81;100191.22;5043879;28;1089;-61
2022/07/27 03:53:33;;;;;;;;;;;;;;;17.56;57.26;100192.78;5038381;28;1336;-65
2022/07/27 03:55:58;;;;;;;;;;;;;;;17.02;58.03;100194.75;5034211;28;1453;-59
2022/07/27 03:58:24;;;;;;;;;;;;;;;16.84;57.82;100190.78;5034810;28;1210;-60
2022/07/27 04:00:49;;;;;;;;;;;;;;;16.76;57.69;100198.53;5039722;28;1212;-61
2022/07/27 04:03:15;;;;;;;;;;;;;;;16.65;57.59;100194.25;5039620;28;1470;-60
2022/07/27 04:05:41;;;;;;;;;;;;;;;16.57;57.32;100194.88;5034722;28;1971;-60
2022/07/27 04:08:06;;;;;;;;;;;;;;;16.57;57.14;100192.13;5042774;28;1210;-61
2022/07/27 04:10:32;;;;;;;;;;;;;;;16.58;57.00;100199.25;5044919;28;1463;-58
2022/07/27 04:12:57;;;;;;;;;;;;;;;16.54;57.17;100193.50;5041060;28;1142;-60
2022/07/27 04:15:23;;;;;;;;;;;;;;;16.55;56.74;100202.56;5039425;28;1950;-59
2022/07/27 04:17:49;;;;;;;;;;;;;;;16.52;56.64;100205.88;5040374;28;1260;-60
2022/07/27 04:20:14;;;;;;;;;;;;;;;16.51;56.71;100207.81;5044213;28;1237;-59
2022/07/27 04:22:40;;;;;;;;;;;;;;;16.46;56.64;100215.28;5041293;28;1504;-61
2022/07/27 04:25:05;;;;;;;;;;;;;;;16.45;56.71;100202.66;5020179;28;1906;-58
2022/07/27 04:27:31;;;;;;;;;;;;;;;16.46;56.62;100218.03;5044946;28;1105;-61
2022/07/27 04:29:56;;;;;;;;;;;;;;;16.41;56.53;100214.22;5044482;28;979;-59
2022/07/27 04:32:22;;;;;;;;;;;;;;;16.35;56.71;100220.81;5047933;28;1105;-60
2022/07/27 04:34:48;;;;;;;;;;;;;;;16.40;56.74;100217.25;5041339;28;1225;-62
2022/07/27 04:37:13;;;;;;;;;;;;;;;16.36;56.84;100206.00;5040741;28;1188;-57
2022/07/27 04:39:38;;;;;;;;;;;;;;;16.37;56.84;100220.56;5040602;28;1257;-57
2022/07/27 04:42:04;;;;;;;;;;;;;;;16.52;57.20;100214.13;5036080;28;2245;-57
2022/07/27 04:44:29;;;;;;;;;;;;;;;17.47;57.31;100216.50;5039052;28;1878;-58
2022/07/27 04:46:55;;;;;;;;;;;;;;;17.01;58.12;100220.56;5038439;28;1360;-57
2022/07/27 04:49:20;;;;;;;;;;;;;;;16.79;57.92;100213.63;5037639;28;1490;-58
2022/07/27 04:51:46;;;;;;;;;;;;;;;16.77;57.43;100213.91;5036422;28;1407;-58
2022/07/27 04:54:11;;;;;;;;;;;;;;;16.69;57.42;100220.03;5039477;28;1018;-57
2022/07/27 04:56:36;;;;;;;;;;;;;;;16.68;57.19;100228.56;5041788;28;1042;-58
2022/07/27 04:59:02;;;;;;;;;;;;;;;16.60;57.06;100219.00;5039721;28;1049;-57
2022/07/27 05:01:27;;;;;;;;;;;;;;;16.59;56.95;100220.94;5039494;28;1051;-59
2022/07/27 05:03:53;;;;;;;;;;;;;;;16.54;57.01;100220.16;5039132;28;1061;-59
2022/07/27 05:06:18;;;;;;;;;;;;;;;16.57;57.02;100219.56;5039062;28;1922;-58
2022/07/27 05:08:44;;;;;;;;;;;;;;;16.54;56.87;100225.63;5037478;28;998;-53
2022/07/27 05:11:09;;;;;;;;;;;;;;;16.52;57.02;100222.34;5043487;28;958;-56
2022/07/27 05:13:38;;;;;;;;;;;;;;;16.49;56.89;100212.75;5043040;28;944;-57
2022/07/27 05:16:04;;;;;;;;;;;;;;;16.49;56.84;100222.94;5042007;28;1164;-58
2022/07/27 05:18:29;;;;;;;;;;;;;;;16.50;56.89;100227.31;5038271;28;1077;-58
2022/07/27 05:20:55;;;;;;;;;;;;;;;16.50;56.95;100238.28;5036190;28;1223;-56
2022/07/27 05:23:20;;;;;;;;;;;;;;;16.43;56.86;100228.44;5038005;28;1105;-55
2022/07/27 05:25:45;;;;;;;;;;;;;;;16.43;56.85;100241.34;5034116;28;1979;-57
2022/07/27 05:28:11;;;;;;;;;;;;;;;16.36;57.21;100238.94;5041241;28;1406;-57
2022/07/27 05:30:36;;;;;;;;;;;;;;;16.36;57.18;100238.13;5035593;28;1258;-55
2022/07/27 05:33:02;;;;;;;;;;;;;;;16.40;57.00;100237.25;5035898;28;1236;-56
2022/07/27 05:35:28;;;;;;;;;;;;;;;16.39;57.02;100232.06;5035581;28;1156;-56
2022/07/27 05:37:54;;;;;;;;;;;;;;;16.37;56.97;100235.09;5037496;28;1164;-57
2022/07/27 05:40:19;;;;;;;;;;;;;;;16.38;57.06;100239.47;5037105;28;1042;-56
2022/07/27 05:42:45;;;;;;;;;;;;;;;16.37;56.81;100245.25;5043756;28;1033;-54
2022/07/27 05:45:10;;;;;;;;;;;;;;;16.37;56.96;100242.50;5041466;28;1997;-57
2022/07/27 05:47:36;;;;;;;;;;;;;;;16.37;56.69;100237.84;5042878;28;1026;-56
2022/07/27 05:50:02;;;;;;;;;;;;;;;16.78;56.97;100233.94;5043199;28;1033;-56
2022/07/27 05:52:27;;;;;;;;;;;;;;;18.41;52.52;100239.75;5042648;28;1072;-54
2022/07/27 05:54:53;;;;;;;;;;;;;;;17.10;54.59;100235.31;5039748;28;1088;-55
2022/07/27 05:57:18;;;;;;;;;;;;;;;18.68;52.59;100238.22;5038510;28;1155;-56
2022/07/27 05:59:44;;;;;;;;;;;;;;;15.57;60.80;100244.25;5035406;28;1204;-55
2022/07/27 06:02:09;;;;;;;;;;;;;;;17.88;55.94;100235.22;5036973;28;1359;-55
2022/07/27 06:04:35;;;;;;;;;;;;;;;18.61;53.54;100231.16;5036261;28;1975;-55
2022/07/27 06:09:44;;;;;;;;;;;;;;;18.15;56.59;100225.56;5039098;28;1284;-55
2022/07/27 06:12:10;;;;;;;;;;;;;;;15.57;62.49;100227.78;5042951;28;1022;-54
2022/07/27 06:14:35;;;;;;;;;;;;;;;17.24;59.51;100230.78;5041368;28;1073;-56
2022/07/27 06:17:00;;;;;;;;;;;;;;;18.79;55.00;100221.22;5039773;28;1069;-55
2022/07/27 06:19:26;;;;;;;;;;;;;;;15.47;63.20;100230.59;5039320;28;998;-57
2022/07/27 06:21:51;;;;;;;;;;;;;;;17.83;58.18;100221.56;5039716;28;982;-59
2022/07/27 06:24:17;;;;;;;;;;;;;;;16.07;61.67;100231.44;5037432;28;1195;-57
2022/07/27 06:26:42;;;;;;;;;;;;;;;17.42;60.61;100226.47;5038793;28;1914;-57
2022/07/27 06:29:08;;;;;;;;;;;;;;;19.55;54.07;100222.06;5038140;28;1009;-57
2022/07/27 06:31:33;;;;;;;;;;;;;;;15.17;63.73;100218.63;5038675;28;1003;-57
2022/07/27 06:33:59;;;;;;;;;;;;;;;16.83;57.19;100230.31;5036634;28;1018;-57
2022/07/27 06:36:24;;;;;;;;;;;;;;;17.19;54.10;100233.56;5035297;28;901;-58
2022/07/27 06:38:50;;;;;;;;;;;;;;;17.26;52.91;100231.31;5041794;28;1002;-56
2022/07/27 06:41:15;;;;;;;;;;;;;;;17.89;54.82;100225.88;5041867;28;967;-57
2022/07/27 06:43:41;;;;;;;;;;;;;;;15.60;61.94;100230.00;5046134;28;1058;-55
2022/07/27 06:46:11;;;;;;;;;;;;;;;17.49;59.50;100230.78;5022599;28;1914;-56
2022/07/27 06:48:36;;;;;;;;;;;;;;;19.17;56.06;100224.97;5042549;28;966;-54
2022/07/27 06:51:02;;;;;;;;;;;;;;;15.14;65.85;100235.63;5039013;28;1073;-58
2022/07/27 06:53:27;;;;;;;;;;;;;;;17.69;59.57;100219.53;5039335;28;1185;-55
2022/07/27 06:55:53;;;;;;;;;;;;;;;16.26;62.88;100228.03;5037791;28;1069;-57
2022/07/27 06:58:18;;;;;;;;;;;;;;;16.26;61.23;100230.78;5036942;28;1030;-57
2022/07/27 07:00:44;;;;;;;;;;;;;;;18.72;58.23;100223.56;5035678;28;1189;-56
2022/07/27 07:03:10;;;;;;;;;;;;;;;15.10;66.09;100218.91;5042293;28;955;-58
2022/07/27 07:05:45;;;;;;;;;;;;;;;18.51;59.40;100223.06;5043948;28;1909;-57
2022/07/27 07:08:10;;;;;;;;;;;;;;;17.05;61.87;100221.63;5036168;28;1371;-57
2022/07/27 07:10:36;;;;;;;;;;;;;;;15.65;64.48;100229.16;5036568;28;1310;-57
2022/07/27 07:13:02;;;;;;;;;;;;;;;18.17;59.96;100228.81;5033683;28;1243;-49
2022/07/27 07:15:28;;;;;;;;;;;;;;;15.06;65.55;100237.00;5035173;28;1224;-55
2022/07/27 07:17:53;;;;;;;;;;;;;;;16.83;58.03;100230.31;5042229;28;1122;-56
2022/07/27 07:20:19;;;;;;;;;;;;;;;17.17;54.95;100229.50;5038062;28;1025;-56
2022/07/27 07:22:44;;;;;;;;;;;;;;;17.23;53.70;100226.38;5041806;28;982;-56
2022/07/27 07:25:10;;;;;;;;;;;;;;;17.24;52.70;100224.47;5037542;28;1971;-57
2022/07/27 07:27:36;;;;;;;;;;;;;;;18.23;55.69;100228.47;5037015;28;1062;-56
2022/07/27 07:30:01;;;;;;;;;;;;;;;15.03;64.48;100230.16;5035954;28;1252;-57
2022/07/27 07:32:27;;;;;;;;;;;;;;;18.40;59.34;100224.34;5033449;28;1537;-58
2022/07/27 07:34:52;;;;;;;;;;;;;;;17.54;61.19;100233.47;5034143;28;1295;-58
2022/07/27 07:37:18;;;;;;;;;;;;;;;15.20;66.26;100235.31;5037419;28;1223;-57
2022/07/27 07:39:43;;;;;;;;;;;;;;;17.01;57.24;100229.66;5039077;28;1224;-56
2022/07/27 07:42:10;;;;;;;;;;;;;;;17.28;54.37;100236.53;5038833;28;1537;-55
2022/07/27 07:44:35;;;;;;;;;;;;;;;17.50;53.59;100230.50;5043190;28;1906;-56
2022/07/27 07:47:01;;;;;;;;;;;;;;;17.43;52.74;100235.50;5040095;28;1069;-57
2022/07/27 07:49:26;;;;;;;;;;;;;;;17.48;51.97;100235.47;5040014;28;1037;-55
2022/07/27 07:51:51;;;;;;;;;;;;;;;17.48;51.44;100234.66;5038992;28;1399;-56
2022/07/27 07:54:17;;;;;;;;;;;;;;;17.42;51.12;100231.16;5044190;28;1251;-57
2022/07/27 07:56:42;;;;;;;;;;;;;;;17.51;50.65;100228.56;5046701;28;1350;-55
2022/07/27 07:59:08;;;;;;;;;;;;;;;17.48;50.73;100231.91;5039515;28;1160;-56
2022/07/27 08:01:33;;;;;;;;;;;;;;;17.45;50.50;100227.81;5037892;28;1193;-56
2022/07/27 08:03:59;;;;;;;;;;;;;;;17.48;50.13;100234.66;5045152;28;982;-56
2022/07/27 08:06:24;;;;;;;;;;;;;;;17.51;50.05;100239.56;5044190;28;1926;-54
2022/07/27 08:08:49;;;;;;;;;;;;;;;17.57;49.81;100236.47;5039860;28;1155;-59
2022/07/27 08:11:15;;;;;;;;;;;;;;;17.50;49.64;100226.91;5039850;28;1149;-57
2022/07/27 08:13:40;;;;;;;;;;;;;;;17.79;50.78;100235.91;5044643;28;842;-58
2022/07/27 08:16:06;;;;;;;;;;;;;;;15.69;60.04;100231.03;5041298;28;1105;-59
2022/07/27 08:18:31;;;;;;;;;;;;;;;17.02;56.95;100235.94;5040417;28;1160;-58
2022/07/27 08:20:57;;;;;;;;;;;;;;;18.47;56.94;100233.84;5039423;28;1232;-58
2022/07/27 08:23:22;;;;;;;;;;;;;;;15.09;65.33;100230.97;5043503;28;1176;-56
2022/07/27 08:25:48;;;;;;;;;;;;;;;17.03;56.53;100235.66;5038242;28;1919;-54
2022/07/27 08:28:13;;;;;;;;;;;;;;;17.06;60.38;100234.28;5041100;28;1225;-56
2022/07/27 08:30:38;;;;;;;;;;;;;;;15.82;61.75;100239.78;5035512;28;1621;-57
2022/07/27 08:33:04;;;;;;;;;;;;;;;17.03;55.17;100243.09;5040423;28;1256;-57
2022/07/27 08:35:30;;;;;;;;;;;;;;;17.26;53.21;100238.72;5033632;28;1248;-56
2022/07/27 08:37:56;;;;;;;;;;;;;;;17.28;52.46;100242.00;5038895;28;1368;-57
2022/07/27 08:40:22;;;;;;;;;;;;;;;17.36;51.31;100241.38;5038261;28;963;-58
2022/07/27 08:42:47;;;;;;;;;;;;;;;17.46;50.97;100254.19;5037795;28;1067;-56
2022/07/27 08:45:14;;;;;;;;;;;;;;;17.48;50.69;100251.16;5048518;28;1906;-59
2022/07/27 08:47:39;;;;;;;;;;;;;;;17.47;50.37;100261.31;5040104;28;1010;-58
2022/07/27 08:50:22;;;;;;;;;;;;;;;17.47;50.10;100249.50;5044941;28;1187;-58
2022/07/27 08:52:54;;;;;;;;;;;;;;;17.52;50.05;100255.75;5030058;28;1311;-58
2022/07/27 08:55:20;;;;;;;;;;;;;;;17.53;49.85;100242.81;5034478;28;1452;-59
2022/07/27 08:57:45;;;;;;;;;;;;;;;17.63;49.32;100253.72;5039831;28;1579;-58
2022/07/27 09:00:11;;;;;;;;;;;;;;;17.51;49.45;100247.81;5024093;28;1292;-58
2022/07/27 09:02:39;;;;;;;;;;;;;;;17.64;49.17;100257.28;5037863;28;1360;-58
2022/07/27 09:05:05;;;;;;;;;;;;;;;17.62;49.23;100257.56;5038596;28;1906;-58
2022/07/27 09:07:31;;;;;;;;;;;;;;;17.59;48.88;100253.47;5038836;28;1061;-62
2022/07/27 09:09:56;;;;;;;;;;;;;;;17.55;49.25;100252.41;5037827;28;1160;-60
2022/07/27 09:12:28;;;;;;;;;;;;;;;17.54;49.15;100256.25;5042032;28;1097;-61
2022/07/27 09:15:03;;;;;;;;;;;;;;;17.57;49.11;100249.38;5041187;28;963;-57
2022/07/27 09:17:29;;;;;;;;;;;;;;;17.68;48.83;100255.56;5044998;28;1132;-58
2022/07/27 09:19:58;;;;;;;;;;;;;;;17.52;48.96;100246.69;5037544;28;1002;-58
2022/07/27 09:22:40;;;;;;;;;;;;;;;17.58;49.01;100251.00;5039099;28;1168;-60
2022/07/27 09:25:06;;;;;;;;;;;;;;;17.68;48.93;100244.56;5036777;28;1910;-60
2022/07/27 09:27:31;;;;;;;;;;;;;;;17.70;48.93;100259.66;5034547;28;1235;-59
2022/07/27 09:30:02;;;;;;;;;;;;;;;17.68;48.90;100244.56;5038200;28;1172;-58
2022/07/27 09:32:27;;;;;;;;;;;;;;;17.72;48.90;100260.19;5040995;28;974;-57
2022/07/27 09:34:52;;;;;;;;;;;;;;;16.24;52.30;100257.66;5036663;28;950;-58
2022/07/27 09:37:24;;;;;;;;;;;;;;;17.43;55.01;100254.75;5039384;28;1002;-57
2022/07/27 09:39:51;;;;;;;;;;;;;;;17.94;53.42;100247.84;5039931;28;1153;-58
2022/07/27 09:42:19;;;;;;;;;;;;;;;15.22;61.76;100249.56;5037774;28;1021;-58
2022/07/27 09:44:44;;;;;;;;;;;;;;;18.28;55.36;100249.56;5040148;28;1971;-58
2022/07/27 09:47:21;;;;;;;;;;;;;;;16.56;57.48;100259.09;5046384;28;954;-58
2022/07/27 09:49:47;;;;;;;;;;;;;;;16.93;58.83;100257.75;5045000;28;1002;-58
2022/07/27 09:52:21;;;;;;;;;;;;;;;18.03;55.29;100256.25;5043500;28;1061;-58
2022/07/27 09:54:46;;;;;;;;;;;;;;;14.87;62.67;100258.63;5042556;28;1022;-58
2022/07/27 09:57:11;;;;;;;;;;;;;;;17.62;56.97;100263.06;5039721;28;1283;-58
2022/07/27 09:59:37;;;;;;;;;;;;;;;16.55;58.39;100260.19;5038833;28;1076;-59
2022/07/27 10:02:02;;;;;;;;;;;;;;;16.96;60.30;100262.66;5035769;28;1125;-58
2022/07/27 10:04:28;;;;;;;;;;;;;;;18.64;56.36;100252.59;5036509;28;1093;-59
2022/07/27 10:06:53;;;;;;;;;;;;;;;15.37;62.82;100240.47;5019656;28;1976;-59
2022/07/27 10:09:19;;;;;;;;;;;;;;;16.84;56.61;100259.44;5018775;28;870;-58
2022/07/27 10:11:46;;;;;;;;;;;;;;;17.34;53.53;100257.31;5036700;28;1470;-58
2022/07/27 10:14:11;;;;;;;;;;;;;;;17.45;52.40;100261.59;5038221;28;1501;-58
2022/07/27 10:16:38;;;;;;;;;;;;;;;17.44;51.64;100257.19;5036376;28;1053;-59
2022/07/27 10:19:04;;;;;;;;;;;;;;;17.57;51.02;100260.38;5039449;28;1276;-58
2022/07/27 10:21:29;;;;;;;;;;;;;;;17.51;50.92;100256.06;5036213;28;1430;-57
2022/07/27 10:24:01;;;;;;;;;;;;;;;17.53;50.56;100260.16;5037814;28;1493;-59
2022/07/27 10:26:31;;;;;;;;;;;;;;;17.60;50.34;100260.59;5036051;28;1906;-59
2022/07/27 10:28:56;;;;;;;;;;;;;;;17.62;50.32;100254.81;5036292;28;1026;-60
2022/07/27 10:31:23;;;;;;;;;;;;;;;17.63;49.88;100259.22;5038961;28;1065;-58
2022/07/27 10:33:49;;;;;;;;;;;;;;;17.72;49.70;100256.63;5035686;28;951;-57
2022/07/27 10:36:24;;;;;;;;;;;;;;;16.98;51.22;100252.19;5036146;28;1262;-58
2022/07/27 10:38:55;;;;;;;;;;;;;;;16.72;57.11;100257.06;5035168;28;1040;-59
2022/07/27 10:41:28;;;;;;;;;;;;;;;18.11;55.18;100261.09;5037933;28;1200;-58
2022/07/27 10:44:13;;;;;;;;;;;;;;;15.22;61.89;100260.53;5032636;28;1501;-58
2022/07/27 10:46:42;;;;;;;;;;;;;;;18.20;57.78;100261.25;5038647;28;1910;-58
2022/07/27 10:49:17;;;;;;;;;;;;;;;16.43;59.90;100257.81;5036163;28;1371;-57
2022/07/27 10:51:42;;;;;;;;;;;;;;;17.13;60.81;100253.16;5038808;28;1207;-58
2022/07/27 10:54:26;;;;;;;;;;;;;;;18.05;57.43;100259.53;5037143;28;1386;-57
2022/07/27 10:56:53;;;;;;;;;;;;;;;15.14;63.47;100260.28;5035261;28;954;-59
2022/07/27 10:59:36;;;;;;;;;;;;;;;17.05;55.18;100263.66;5039253;28;1198;-58
2022/07/27 11:02:02;;;;;;;;;;;;;;;17.42;52.99;100256.69;5031796;28;1144;-59
2022/07/27 11:04:28;;;;;;;;;;;;;;;17.50;52.19;100265.41;5036657;28;1418;-60
2022/07/27 11:06:56;;;;;;;;;;;;;;;17.61;51.95;100261.41;5034377;28;1898;-59
2022/07/27 11:09:22;;;;;;;;;;;;;;;17.59;51.55;100258.97;5039728;28;1394;-58
2022/07/27 11:11:47;;;;;;;;;;;;;;;17.67;50.70;100254.75;5020365;28;1589;-59
2022/07/27 11:14:13;;;;;;;;;;;;;;;17.70;50.31;100248.66;5036655;28;1123;-58
2022/07/27 11:16:38;;;;;;;;;;;;;;;17.67;50.38;100257.50;5019982;28;1018;-59
2022/07/27 11:19:04;;;;;;;;;;;;;;;17.74;49.99;100244.22;5037821;28;1073;-59
2022/07/27 11:21:33;;;;;;;;;;;;;;;17.72;50.07;100251.13;5036616;28;1062;-59
2022/07/27 11:24:01;;;;;;;;;;;;;;;17.73;49.81;100253.56;5036865;28;1191;-59
2022/07/27 11:26:28;;;;;;;;;;;;;;;15.34;58.76;100253.91;5017985;28;1989;-59
2022/07/27 11:28:53;;;;;;;;;;;;;;;17.78;55.65;100256.28;5034806;28;1239;-59
2022/07/27 11:31:19;;;;;;;;;;;;;;;17.04;55.37;100263.94;5038618;28;902;-58
2022/07/27 11:33:51;;;;;;;;;;;;;;;16.64;61.13;100263.97;5038323;28;1041;-58
2022/07/27 11:36:16;;;;;;;;;;;;;;;18.20;57.23;100253.00;5039847;28;1108;-58
2022/07/27 11:38:45;;;;;;;;;;;;;;;15.38;62.17;100257.75;5035895;28;1462;-57
2022/07/27 11:41:12;;;;;;;;;;;;;;;17.87;59.68;100250.94;5033311;28;1259;-59
2022/07/27 11:43:37;;;;;;;;;;;;;;;17.52;58.50;100253.00;5016464;28;1246;-59
2022/07/27 11:46:10;;;;;;;;;;;;;;;15.66;61.55;100258.22;5036517;28;1918;-58
2022/07/27 11:48:35;;;;;;;;;;;;;;;18.15;57.58;100251.13;5036188;28;1236;-59
2022/07/27 11:51:01;;;;;;;;;;;;;;;15.46;62.55;100248.13;5032796;28;1276;-59
2022/07/27 11:53:27;;;;;;;;;;;;;;;17.44;59.52;100250.91;5036891;28;1223;-58
2022/07/27 11:55:53;;;;;;;;;;;;;;;18.16;57.67;100246.44;5041739;28;1228;-58
2022/07/27 11:58:18;;;;;;;;;;;;;;;15.40;63.68;100259.13;5036766;28;1200;-60
2022/07/27 12:00:44;;;;;;;;;;;;;;;17.10;55.29;100247.13;5035511;28;1238;-59
2022/07/27 12:03:22;;;;;;;;;;;;;;;17.40;53.09;100236.94;5034359;28;1093;-58
2022/07/27 12:05:54;;;;;;;;;;;;;;;17.48;52.02;100245.66;5032999;28;1911;-57
2022/07/27 12:08:20;;;;;;;;;;;;;;;17.56;51.24;100236.75;5028978;28;1239;-58
2022/07/27 12:11:01;;;;;;;;;;;;;;;17.47;51.07;100244.00;5034062;28;1255;-57
2022/07/27 12:13:33;;;;;;;;;;;;;;;17.56;50.39;100232.06;5031386;28;1431;-57
2022/07/27 12:15:58;;;;;;;;;;;;;;;17.64;49.99;100233.34;5019294;28;1168;-57
2022/07/27 12:18:24;;;;;;;;;;;;;;;17.59;49.83;100220.47;5033731;28;1247;-58
2022/07/27 12:20:50;;;;;;;;;;;;;;;17.56;50.01;100232.06;5018560;28;1133;-58
2022/07/27 12:23:16;;;;;;;;;;;;;;;17.61;49.52;100228.44;5034056;28;1148;-57
2022/07/27 12:25:42;;;;;;;;;;;;;;;17.64;49.49;100224.28;5035359;28;1906;-57
2022/07/27 12:28:16;;;;;;;;;;;;;;;17.67;49.56;100229.19;5041862;28;1084;-56
2022/07/27 12:30:45;;;;;;;;;;;;;;;17.76;49.24;100230.19;5040876;28;1248;-58
2022/07/27 12:33:23;;;;;;;;;;;;;;;17.72;48.98;100221.69;5037525;28;1257;-58
2022/07/27 12:35:48;;;;;;;;;;;;;;;17.75;48.88;100228.53;5035027;28;1323;-58
2022/07/27 12:38:15;;;;;;;;;;;;;;;17.71;48.98;100222.81;5037855;28;1177;-57
2022/07/27 12:40:47;;;;;;;;;;;;;;;15.32;58.27;100215.84;5041983;28;1128;-57
2022/07/27 12:43:16;;;;;;;;;;;;;;;17.99;54.66;100222.19;5036976;28;1202;-56
2022/07/27 12:45:42;;;;;;;;;;;;;;;16.62;56.11;100227.78;5011719;28;1910;-56
2022/07/27 12:48:15;;;;;;;;;;;;;;;16.98;58.96;100227.47;5037679;28;1165;-57